sensor_id;sensor_type;location;lat;lon;timestamp;P1;durP1;ratioP1;P2;durP2;ratioP2
17451;SDS011;8843;48.838;9.324;2023-02-01T00:01:48;3.73;;;3.33;;
17451;SDS011;8843;48.838;9.324;2023-02-01T00:04:15;3.50;;;2.90;;
17451;SDS011;8843;48.838;9.324;2023-02-01T00:06:42;3.30;;;3.00;;
17451;SDS011;8843;48.838;9.324;2023-02-01T00:09:09;5.10;;;3.30;;
17451;SDS011;8843;48.838;9.324;2023-02-01T00:11:35;3.40;;;2.60;;
17451;SDS011;8843;48.838;9.324;2023-02-01T00:14:04;4.20;;;3.10;;
17451;SDS011;8843;48.838;9.324;2023-02-01T00:16:31;5.70;;;3.10;;
17451;SDS011;8843;48.838;9.324;2023-02-01T00:18:58;3.97;;;3.03;;
17451;SDS011;8843;48.838;9.324;2023-02-01T00:21:27;3.90;;;2.50;;
17451;SDS011;8843;48.838;9.324;2023-02-01T00:23:54;3.63;;;2.60;;
17451;SDS011;8843;48.838;9.324;2023-02-01T00:26:22;3.23;;;2.40;;
17451;SDS011;8843;48.838;9.324;2023-02-01T00:28:53;3.67;;;2.60;;
17451;SDS011;8843;48.838;9.324;2023-02-01T00:31:22;2.43;;;2.20;;
17451;SDS011;8843;48.838;9.324;2023-02-01T00:33:49;2.83;;;2.37;;
17451;SDS011;8843;48.838;9.324;2023-02-01T00:36:16;2.83;;;2.60;;
17451;SDS011;8843;48.838;9.324;2023-02-01T00:38:43;2.40;;;2.20;;
17451;SDS011;8843;48.838;9.324;2023-02-01T00:41:11;2.83;;;2.13;;
17451;SDS011;8843;48.838;9.324;2023-02-01T00:43:40;2.37;;;2.17;;
17451;SDS011;8843;48.838;9.324;2023-02-01T00:46:07;3.23;;;2.30;;
17451;SDS011;8843;48.838;9.324;2023-02-01T00:48:35;1.90;;;1.60;;
17451;SDS011;8843;48.838;9.324;2023-02-01T00:51:03;3.07;;;2.17;;
17451;SDS011;8843;48.838;9.324;2023-02-01T00:53:32;2.20;;;1.90;;
17451;SDS011;8843;48.838;9.324;2023-02-01T00:55:59;2.10;;;1.90;;
17451;SDS011;8843;48.838;9.324;2023-02-01T00:58:27;1.87;;;1.70;;
17451;SDS011;8843;48.838;9.324;2023-02-01T01:01:00;1.77;;;1.67;;
17451;SDS011;8843;48.838;9.324;2023-02-01T01:03:28;2.63;;;1.90;;
17451;SDS011;8843;48.838;9.324;2023-02-01T01:06:00;1.97;;;1.87;;
17451;SDS011;8843;48.838;9.324;2023-02-01T01:08:28;1.73;;;1.63;;
17451;SDS011;8843;48.838;9.324;2023-02-01T01:10:55;2.00;;;1.90;;
17451;SDS011;8843;48.838;9.324;2023-02-01T01:13:22;3.03;;;1.80;;
17451;SDS011;8843;48.838;9.324;2023-02-01T01:15:49;2.10;;;1.90;;
17451;SDS011;8843;48.838;9.324;2023-02-01T01:18:15;2.13;;;1.87;;
17451;SDS011;8843;48.838;9.324;2023-02-01T01:20:42;3.93;;;1.90;;
17451;SDS011;8843;48.838;9.324;2023-02-01T01:23:11;2.57;;;2.00;;
17451;SDS011;8843;48.838;9.324;2023-02-01T01:25:38;2.90;;;2.10;;
17451;SDS011;8843;48.838;9.324;2023-02-01T01:28:05;2.20;;;2.00;;
17451;SDS011;8843;48.838;9.324;2023-02-01T01:30:32;1.93;;;1.80;;
17451;SDS011;8843;48.838;9.324;2023-02-01T01:33:00;1.93;;;1.77;;
17451;SDS011;8843;48.838;9.324;2023-02-01T01:35:28;1.67;;;1.57;;
17451;SDS011;8843;48.838;9.324;2023-02-01T01:37:55;3.43;;;1.90;;
17451;SDS011;8843;48.838;9.324;2023-02-01T01:40:24;2.07;;;1.80;;
17451;SDS011;8843;48.838;9.324;2023-02-01T01:42:51;1.83;;;1.73;;
17451;SDS011;8843;48.838;9.324;2023-02-01T01:45:22;1.77;;;1.63;;
17451;SDS011;8843;48.838;9.324;2023-02-01T01:47:52;2.37;;;1.50;;
17451;SDS011;8843;48.838;9.324;2023-02-01T01:50:20;1.80;;;1.70;;
17451;SDS011;8843;48.838;9.324;2023-02-01T01:52:51;1.90;;;1.70;;
17451;SDS011;8843;48.838;9.324;2023-02-01T01:55:21;2.23;;;1.40;;
17451;SDS011;8843;48.838;9.324;2023-02-01T01:57:52;1.90;;;1.73;;
17451;SDS011;8843;48.838;9.324;2023-02-01T02:00:24;1.97;;;1.60;;
17451;SDS011;8843;48.838;9.324;2023-02-01T02:02:53;1.90;;;1.70;;
17451;SDS011;8843;48.838;9.324;2023-02-01T02:05:23;3.47;;;2.00;;
17451;SDS011;8843;48.838;9.324;2023-02-01T02:07:51;3.50;;;1.60;;
17451;SDS011;8843;48.838;9.324;2023-02-01T02:10:23;3.87;;;1.70;;
17451;SDS011;8843;48.838;9.324;2023-02-01T02:13:10;2.27;;;2.00;;
17451;SDS011;8843;48.838;9.324;2023-02-01T02:15:41;1.60;;;1.50;;
17451;SDS011;8843;48.838;9.324;2023-02-01T02:18:15;2.10;;;1.60;;
17451;SDS011;8843;48.838;9.324;2023-02-01T02:20:51;2.10;;;1.80;;
17451;SDS011;8843;48.838;9.324;2023-02-01T02:23:37;2.70;;;1.60;;
17451;SDS011;8843;48.838;9.324;2023-02-01T02:26:35;1.63;;;1.53;;
17451;SDS011;8843;48.838;9.324;2023-02-01T02:29:29;2.03;;;1.80;;
17451;SDS011;8843;48.838;9.324;2023-02-01T02:32:22;2.00;;;1.80;;
17451;SDS011;8843;48.838;9.324;2023-02-01T02:35:09;3.30;;;1.70;;
17451;SDS011;8843;48.838;9.324;2023-02-01T02:37:45;1.83;;;1.73;;
17451;SDS011;8843;48.838;9.324;2023-02-01T02:40:20;2.07;;;1.70;;
17451;SDS011;8843;48.838;9.324;2023-02-01T02:42:58;2.27;;;2.10;;
17451;SDS011;8843;48.838;9.324;2023-02-01T02:45:49;2.90;;;2.10;;
17451;SDS011;8843;48.838;9.324;2023-02-01T02:48:41;2.00;;;1.80;;
17451;SDS011;8843;48.838;9.324;2023-02-01T02:51:14;1.73;;;1.63;;
17451;SDS011;8843;48.838;9.324;2023-02-01T02:54:05;1.80;;;1.60;;
17451;SDS011;8843;48.838;9.324;2023-02-01T02:56:51;3.43;;;1.97;;
17451;SDS011;8843;48.838;9.324;2023-02-01T02:59:38;2.00;;;1.80;;
17451;SDS011;8843;48.838;9.324;2023-02-01T03:02:26;2.23;;;1.90;;
17451;SDS011;8843;48.838;9.324;2023-02-01T03:05:11;2.03;;;1.93;;
17451;SDS011;8843;48.838;9.324;2023-02-01T03:10:36;1.83;;;1.70;;
17451;SDS011;8843;48.838;9.324;2023-02-01T03:13:13;2.47;;;2.27;;
17451;SDS011;8843;48.838;9.324;2023-02-01T03:15:44;3.13;;;1.90;;
17451;SDS011;8843;48.838;9.324;2023-02-01T03:18:18;3.03;;;1.73;;
17451;SDS011;8843;48.838;9.324;2023-02-01T03:20:51;1.87;;;1.77;;
17451;SDS011;8843;48.838;9.324;2023-02-01T03:23:21;2.83;;;1.80;;
17451;SDS011;8843;48.838;9.324;2023-02-01T03:25:52;2.33;;;2.13;;
17451;SDS011;8843;48.838;9.324;2023-02-01T03:28:21;2.13;;;1.80;;
17451;SDS011;8843;48.838;9.324;2023-02-01T03:30:50;2.17;;;1.97;;
17451;SDS011;8843;48.838;9.324;2023-02-01T03:33:20;2.40;;;1.97;;
17451;SDS011;8843;48.838;9.324;2023-02-01T03:35:50;3.43;;;2.30;;
17451;SDS011;8843;48.838;9.324;2023-02-01T03:38:25;2.27;;;1.77;;
17451;SDS011;8843;48.838;9.324;2023-02-01T03:40:57;2.20;;;2.00;;
17451;SDS011;8843;48.838;9.324;2023-02-01T03:43:29;2.67;;;1.70;;
17451;SDS011;8843;48.838;9.324;2023-02-01T03:46:01;1.80;;;1.70;;
17451;SDS011;8843;48.838;9.324;2023-02-01T03:48:32;2.13;;;2.00;;
17451;SDS011;8843;48.838;9.324;2023-02-01T03:51:01;2.33;;;2.13;;
17451;SDS011;8843;48.838;9.324;2023-02-01T03:53:32;2.20;;;1.80;;
17451;SDS011;8843;48.838;9.324;2023-02-01T03:56:02;2.17;;;1.77;;
17451;SDS011;8843;48.838;9.324;2023-02-01T03:58:29;1.83;;;1.73;;
17451;SDS011;8843;48.838;9.324;2023-02-01T04:00:57;2.20;;;2.00;;
17451;SDS011;8843;48.838;9.324;2023-02-01T04:03:26;2.20;;;2.00;;
17451;SDS011;8843;48.838;9.324;2023-02-01T04:05:54;2.00;;;1.90;;
17451;SDS011;8843;48.838;9.324;2023-02-01T04:08:21;3.03;;;2.33;;
17451;SDS011;8843;48.838;9.324;2023-02-01T04:10:50;2.17;;;1.97;;
17451;SDS011;8843;48.838;9.324;2023-02-01T04:13:17;3.23;;;2.13;;
17451;SDS011;8843;48.838;9.324;2023-02-01T04:15:44;2.63;;;2.40;;
17451;SDS011;8843;48.838;9.324;2023-02-01T04:18:14;2.20;;;2.00;;
17451;SDS011;8843;48.838;9.324;2023-02-01T04:20:42;2.90;;;2.27;;
17451;SDS011;8843;48.838;9.324;2023-02-01T04:23:10;2.37;;;2.17;;
17451;SDS011;8843;48.838;9.324;2023-02-01T04:25:37;1.77;;;1.67;;
17451;SDS011;8843;48.838;9.324;2023-02-01T04:28:05;2.40;;;2.20;;
17451;SDS011;8843;48.838;9.324;2023-02-01T04:30:32;2.90;;;1.90;;
17451;SDS011;8843;48.838;9.324;2023-02-01T04:32:59;2.33;;;2.13;;
17451;SDS011;8843;48.838;9.324;2023-02-01T04:35:28;2.10;;;1.90;;
17451;SDS011;8843;48.838;9.324;2023-02-01T04:37:55;2.37;;;2.07;;
17451;SDS011;8843;48.838;9.324;2023-02-01T04:40:22;1.87;;;1.77;;
17451;SDS011;8843;48.838;9.324;2023-02-01T04:42:49;1.80;;;1.70;;
17451;SDS011;8843;48.838;9.324;2023-02-01T04:45:17;1.60;;;1.50;;
17451;SDS011;8843;48.838;9.324;2023-02-01T04:47:44;1.90;;;1.80;;
17451;SDS011;8843;48.838;9.324;2023-02-01T04:50:11;1.93;;;1.73;;
17451;SDS011;8843;48.838;9.324;2023-02-01T04:52:38;2.30;;;2.10;;
17451;SDS011;8843;48.838;9.324;2023-02-01T04:55:05;2.27;;;2.07;;
17451;SDS011;8843;48.838;9.324;2023-02-01T04:57:33;2.23;;;2.07;;
17451;SDS011;8843;48.838;9.324;2023-02-01T04:59:59;2.20;;;2.00;;
17451;SDS011;8843;48.838;9.324;2023-02-01T05:02:28;2.03;;;1.90;;
17451;SDS011;8843;48.838;9.324;2023-02-01T05:04:56;2.60;;;2.20;;
17451;SDS011;8843;48.838;9.324;2023-02-01T05:07:23;2.40;;;1.87;;
17451;SDS011;8843;48.838;9.324;2023-02-01T05:09:50;2.50;;;2.27;;
17451;SDS011;8843;48.838;9.324;2023-02-01T05:12:17;3.90;;;2.10;;
17451;SDS011;8843;48.838;9.324;2023-02-01T05:15:01;6.03;;;2.30;;
17451;SDS011;8843;48.838;9.324;2023-02-01T05:17:29;2.37;;;2.17;;
17451;SDS011;8843;48.838;9.324;2023-02-01T05:19:56;2.17;;;1.97;;
17451;SDS011;8843;48.838;9.324;2023-02-01T05:22:23;2.30;;;2.10;;
17451;SDS011;8843;48.838;9.324;2023-02-01T05:24:50;4.67;;;2.20;;
17451;SDS011;8843;48.838;9.324;2023-02-01T05:27:17;2.23;;;2.03;;
17451;SDS011;8843;48.838;9.324;2023-02-01T05:29:44;2.27;;;2.03;;
17451;SDS011;8843;48.838;9.324;2023-02-01T05:32:11;2.03;;;1.90;;
17451;SDS011;8843;48.838;9.324;2023-02-01T05:34:39;2.40;;;2.20;;
17451;SDS011;8843;48.838;9.324;2023-02-01T05:37:06;3.70;;;2.20;;
17451;SDS011;8843;48.838;9.324;2023-02-01T05:39:33;3.90;;;1.87;;
17451;SDS011;8843;48.838;9.324;2023-02-01T05:42:00;2.00;;;1.80;;
17451;SDS011;8843;48.838;9.324;2023-02-01T05:44:27;2.10;;;1.90;;
17451;SDS011;8843;48.838;9.324;2023-02-01T05:46:54;2.03;;;1.80;;
17451;SDS011;8843;48.838;9.324;2023-02-01T05:49:21;2.20;;;2.00;;
17451;SDS011;8843;48.838;9.324;2023-02-01T05:51:49;3.70;;;1.90;;
17451;SDS011;8843;48.838;9.324;2023-02-01T05:54:16;2.40;;;1.93;;
17451;SDS011;8843;48.838;9.324;2023-02-01T05:56:46;2.53;;;2.30;;
17451;SDS011;8843;48.838;9.324;2023-02-01T05:59:25;2.47;;;2.07;;
17451;SDS011;8843;48.838;9.324;2023-02-01T06:01:52;1.77;;;1.67;;
17451;SDS011;8843;48.838;9.324;2023-02-01T06:04:18;2.27;;;1.90;;
17451;SDS011;8843;48.838;9.324;2023-02-01T06:06:45;2.77;;;1.90;;
17451;SDS011;8843;48.838;9.324;2023-02-01T06:09:17;2.13;;;1.60;;
17451;SDS011;8843;48.838;9.324;2023-02-01T06:11:44;3.23;;;1.63;;
17451;SDS011;8843;48.838;9.324;2023-02-01T06:14:10;3.00;;;1.90;;
17451;SDS011;8843;48.838;9.324;2023-02-01T06:16:37;2.30;;;1.93;;
17451;SDS011;8843;48.838;9.324;2023-02-01T06:19:04;2.13;;;1.93;;
17451;SDS011;8843;48.838;9.324;2023-02-01T06:21:31;2.17;;;1.90;;
17451;SDS011;8843;48.838;9.324;2023-02-01T06:23:59;2.53;;;1.93;;
17451;SDS011;8843;48.838;9.324;2023-02-01T06:26:27;2.03;;;1.80;;
17451;SDS011;8843;48.838;9.324;2023-02-01T06:28:54;3.17;;;1.80;;
17451;SDS011;8843;48.838;9.324;2023-02-01T06:31:22;1.80;;;1.70;;
17451;SDS011;8843;48.838;9.324;2023-02-01T06:33:50;2.10;;;1.90;;
17451;SDS011;8843;48.838;9.324;2023-02-01T06:36:18;2.60;;;1.60;;
17451;SDS011;8843;48.838;9.324;2023-02-01T06:38:46;2.50;;;1.77;;
17451;SDS011;8843;48.838;9.324;2023-02-01T06:41:14;3.10;;;2.10;;
17451;SDS011;8843;48.838;9.324;2023-02-01T06:43:42;2.13;;;1.57;;
17451;SDS011;8843;48.838;9.324;2023-02-01T06:46:13;2.10;;;1.90;;
17451;SDS011;8843;48.838;9.324;2023-02-01T06:48:41;2.07;;;1.93;;
17451;SDS011;8843;48.838;9.324;2023-02-01T06:51:16;2.80;;;1.80;;
17451;SDS011;8843;48.838;9.324;2023-02-01T06:53:45;1.87;;;1.73;;
17451;SDS011;8843;48.838;9.324;2023-02-01T06:56:12;3.53;;;2.40;;
17451;SDS011;8843;48.838;9.324;2023-02-01T06:58:39;2.83;;;2.07;;
17451;SDS011;8843;48.838;9.324;2023-02-01T07:01:08;2.00;;;1.90;;
17451;SDS011;8843;48.838;9.324;2023-02-01T07:03:36;2.00;;;1.90;;
17451;SDS011;8843;48.838;9.324;2023-02-01T07:06:03;2.80;;;2.20;;
17451;SDS011;8843;48.838;9.324;2023-02-01T07:08:32;4.07;;;2.07;;
17451;SDS011;8843;48.838;9.324;2023-02-01T07:11:01;1.83;;;1.73;;
17451;SDS011;8843;48.838;9.324;2023-02-01T07:13:29;2.77;;;1.90;;
17451;SDS011;8843;48.838;9.324;2023-02-01T07:15:57;3.20;;;2.10;;
17451;SDS011;8843;48.838;9.324;2023-02-01T07:18:26;4.43;;;1.83;;
17451;SDS011;8843;48.838;9.324;2023-02-01T07:20:54;2.93;;;2.13;;
17451;SDS011;8843;48.838;9.324;2023-02-01T07:23:22;2.13;;;1.80;;
17451;SDS011;8843;48.838;9.324;2023-02-01T07:25:52;2.30;;;2.10;;
17451;SDS011;8843;48.838;9.324;2023-02-01T07:28:20;4.60;;;2.30;;
17451;SDS011;8843;48.838;9.324;2023-02-01T07:30:46;4.27;;;2.13;;
17451;SDS011;8843;48.838;9.324;2023-02-01T07:33:16;3.27;;;2.37;;
17451;SDS011;8843;48.838;9.324;2023-02-01T07:35:45;4.10;;;2.20;;
17451;SDS011;8843;48.838;9.324;2023-02-01T07:38:12;5.23;;;2.70;;
17451;SDS011;8843;48.838;9.324;2023-02-01T07:40:39;3.93;;;2.20;;
17451;SDS011;8843;48.838;9.324;2023-02-01T07:43:06;2.30;;;2.10;;
17451;SDS011;8843;48.838;9.324;2023-02-01T07:45:34;3.73;;;2.40;;
17451;SDS011;8843;48.838;9.324;2023-02-01T07:48:01;4.63;;;2.60;;
17451;SDS011;8843;48.838;9.324;2023-02-01T07:50:29;3.40;;;2.77;;
17451;SDS011;8843;48.838;9.324;2023-02-01T07:52:59;3.27;;;2.50;;
17451;SDS011;8843;48.838;9.324;2023-02-01T07:55:26;3.03;;;2.30;;
17451;SDS011;8843;48.838;9.324;2023-02-01T07:57:56;4.17;;;2.20;;
17451;SDS011;8843;48.838;9.324;2023-02-01T08:00:23;3.00;;;2.47;;
17451;SDS011;8843;48.838;9.324;2023-02-01T08:03:08;3.00;;;2.67;;
17451;SDS011;8843;48.838;9.324;2023-02-01T08:05:35;3.83;;;2.30;;
17451;SDS011;8843;48.838;9.324;2023-02-01T08:08:04;2.70;;;2.30;;
17451;SDS011;8843;48.838;9.324;2023-02-01T08:10:32;4.70;;;2.67;;
17451;SDS011;8843;48.838;9.324;2023-02-01T08:13:00;3.67;;;2.60;;
17451;SDS011;8843;48.838;9.324;2023-02-01T08:15:28;4.00;;;2.17;;
17451;SDS011;8843;48.838;9.324;2023-02-01T08:17:55;7.90;;;2.93;;
17451;SDS011;8843;48.838;9.324;2023-02-01T08:20:23;2.70;;;2.43;;
17451;SDS011;8843;48.838;9.324;2023-02-01T08:22:51;3.67;;;2.40;;
17451;SDS011;8843;48.838;9.324;2023-02-01T08:25:20;7.90;;;2.87;;
17451;SDS011;8843;48.838;9.324;2023-02-01T08:27:47;4.43;;;2.90;;
17451;SDS011;8843;48.838;9.324;2023-02-01T08:30:15;4.97;;;2.63;;
17451;SDS011;8843;48.838;9.324;2023-02-01T08:32:42;4.87;;;2.90;;
17451;SDS011;8843;48.838;9.324;2023-02-01T08:35:09;6.90;;;2.80;;
17451;SDS011;8843;48.838;9.324;2023-02-01T08:37:36;2.97;;;2.43;;
17451;SDS011;8843;48.838;9.324;2023-02-01T08:40:04;3.83;;;2.43;;
17451;SDS011;8843;48.838;9.324;2023-02-01T08:42:33;5.03;;;2.50;;
17451;SDS011;8843;48.838;9.324;2023-02-01T08:45:19;8.87;;;3.30;;
17451;SDS011;8843;48.838;9.324;2023-02-01T08:47:48;4.77;;;2.50;;
17451;SDS011;8843;48.838;9.324;2023-02-01T08:50:16;6.70;;;2.77;;
17451;SDS011;8843;48.838;9.324;2023-02-01T08:52:43;5.47;;;3.07;;
17451;SDS011;8843;48.838;9.324;2023-02-01T08:55:11;4.97;;;3.00;;
17451;SDS011;8843;48.838;9.324;2023-02-01T08:57:40;5.77;;;2.70;;
17451;SDS011;8843;48.838;9.324;2023-02-01T09:00:08;9.30;;;3.27;;
17451;SDS011;8843;48.838;9.324;2023-02-01T09:02:37;6.47;;;2.83;;
17451;SDS011;8843;48.838;9.324;2023-02-01T09:05:05;5.73;;;3.03;;
17451;SDS011;8843;48.838;9.324;2023-02-01T09:07:33;6.20;;;2.90;;
17451;SDS011;8843;48.838;9.324;2023-02-01T09:10:00;7.97;;;3.20;;
17451;SDS011;8843;48.838;9.324;2023-02-01T09:12:27;5.50;;;2.47;;
17451;SDS011;8843;48.838;9.324;2023-02-01T09:14:56;8.13;;;3.00;;
17451;SDS011;8843;48.838;9.324;2023-02-01T09:17:24;5.23;;;2.27;;
17451;SDS011;8843;48.838;9.324;2023-02-01T09:19:51;6.03;;;2.80;;
17451;SDS011;8843;48.838;9.324;2023-02-01T09:22:18;5.07;;;2.30;;
17451;SDS011;8843;48.838;9.324;2023-02-01T09:24:45;4.50;;;2.37;;
17451;SDS011;8843;48.838;9.324;2023-02-01T09:27:12;11.20;;;3.20;;
17451;SDS011;8843;48.838;9.324;2023-02-01T09:29:39;6.73;;;3.20;;
17451;SDS011;8843;48.838;9.324;2023-02-01T09:32:07;5.80;;;2.50;;
17451;SDS011;8843;48.838;9.324;2023-02-01T09:34:34;8.40;;;2.77;;
17451;SDS011;8843;48.838;9.324;2023-02-01T09:37:01;10.50;;;2.60;;
17451;SDS011;8843;48.838;9.324;2023-02-01T09:39:28;5.33;;;2.40;;
17451;SDS011;8843;48.838;9.324;2023-02-01T09:41:58;7.57;;;2.97;;
17451;SDS011;8843;48.838;9.324;2023-02-01T09:44:38;13.20;;;3.30;;
17451;SDS011;8843;48.838;9.324;2023-02-01T09:47:19;12.67;;;3.00;;
17451;SDS011;8843;48.838;9.324;2023-02-01T09:49:49;5.37;;;2.63;;
17451;SDS011;8843;48.838;9.324;2023-02-01T09:52:24;4.50;;;2.53;;
17451;SDS011;8843;48.838;9.324;2023-02-01T09:54:56;8.37;;;2.90;;
17451;SDS011;8843;48.838;9.324;2023-02-01T09:57:29;5.87;;;2.70;;
17451;SDS011;8843;48.838;9.324;2023-02-01T10:00:07;10.03;;;3.00;;
17451;SDS011;8843;48.838;9.324;2023-02-01T10:02:45;9.90;;;2.73;;
17451;SDS011;8843;48.838;9.324;2023-02-01T10:05:12;6.80;;;2.60;;
17451;SDS011;8843;48.838;9.324;2023-02-01T10:07:43;4.83;;;2.30;;
17451;SDS011;8843;48.838;9.324;2023-02-01T10:10:23;5.53;;;2.60;;
17451;SDS011;8843;48.838;9.324;2023-02-01T10:13:00;13.83;;;3.03;;
17451;SDS011;8843;48.838;9.324;2023-02-01T10:15:40;10.77;;;3.10;;
17451;SDS011;8843;48.838;9.324;2023-02-01T10:21:10;5.67;;;2.40;;
17451;SDS011;8843;48.838;9.324;2023-02-01T10:23:48;9.43;;;2.77;;
17451;SDS011;8843;48.838;9.324;2023-02-01T10:26:29;6.40;;;1.93;;
17451;SDS011;8843;48.838;9.324;2023-02-01T10:29:02;3.47;;;1.50;;
17451;SDS011;8843;48.838;9.324;2023-02-01T10:31:30;13.87;;;2.77;;
17451;SDS011;8843;48.838;9.324;2023-02-01T10:34:06;8.60;;;2.80;;
17451;SDS011;8843;48.838;9.324;2023-02-01T10:36:40;7.47;;;2.40;;
17451;SDS011;8843;48.838;9.324;2023-02-01T10:39:11;6.70;;;2.53;;
17451;SDS011;8843;48.838;9.324;2023-02-01T10:41:39;7.10;;;2.67;;
17451;SDS011;8843;48.838;9.324;2023-02-01T10:44:11;8.50;;;2.87;;
17451;SDS011;8843;48.838;9.324;2023-02-01T10:46:40;8.20;;;2.63;;
17451;SDS011;8843;48.838;9.324;2023-02-01T10:49:11;9.53;;;2.70;;
17451;SDS011;8843;48.838;9.324;2023-02-01T10:51:45;12.30;;;2.53;;
17451;SDS011;8843;48.838;9.324;2023-02-01T10:54:18;9.37;;;2.57;;
17451;SDS011;8843;48.838;9.324;2023-02-01T10:56:46;9.13;;;2.87;;
17451;SDS011;8843;48.838;9.324;2023-02-01T10:59:15;7.37;;;2.37;;
17451;SDS011;8843;48.838;9.324;2023-02-01T11:01:44;11.07;;;2.83;;
17451;SDS011;8843;48.838;9.324;2023-02-01T11:04:14;6.93;;;2.00;;
17451;SDS011;8843;48.838;9.324;2023-02-01T11:06:44;10.20;;;2.63;;
17451;SDS011;8843;48.838;9.324;2023-02-01T11:09:16;7.77;;;2.30;;
17451;SDS011;8843;48.838;9.324;2023-02-01T11:11:54;7.07;;;2.43;;
17451;SDS011;8843;48.838;9.324;2023-02-01T11:14:27;8.13;;;2.27;;
17451;SDS011;8843;48.838;9.324;2023-02-01T11:17:01;4.87;;;2.27;;
17451;SDS011;8843;48.838;9.324;2023-02-01T11:19:45;5.60;;;2.47;;
17451;SDS011;8843;48.838;9.324;2023-02-01T11:22:12;9.83;;;2.60;;
17451;SDS011;8843;48.838;9.324;2023-02-01T11:24:40;7.50;;;2.37;;
17451;SDS011;8843;48.838;9.324;2023-02-01T11:27:13;9.77;;;2.20;;
17451;SDS011;8843;48.838;9.324;2023-02-01T11:29:43;6.43;;;2.30;;
17451;SDS011;8843;48.838;9.324;2023-02-01T11:32:13;6.83;;;2.67;;
17451;SDS011;8843;48.838;9.324;2023-02-01T11:34:43;10.23;;;2.73;;
17451;SDS011;8843;48.838;9.324;2023-02-01T11:37:16;12.77;;;3.03;;
17451;SDS011;8843;48.838;9.324;2023-02-01T11:39:53;10.50;;;2.20;;
17451;SDS011;8843;48.838;9.324;2023-02-01T11:42:21;9.40;;;2.70;;
17451;SDS011;8843;48.838;9.324;2023-02-01T11:44:49;6.73;;;2.60;;
17451;SDS011;8843;48.838;9.324;2023-02-01T11:47:20;10.37;;;2.60;;
17451;SDS011;8843;48.838;9.324;2023-02-01T11:49:51;7.07;;;2.87;;
17451;SDS011;8843;48.838;9.324;2023-02-01T11:52:26;9.70;;;2.90;;
17451;SDS011;8843;48.838;9.324;2023-02-01T11:55:15;11.33;;;2.87;;
17451;SDS011;8843;48.838;9.324;2023-02-01T11:58:12;4.63;;;2.00;;
17451;SDS011;8843;48.838;9.324;2023-02-01T12:00:58;7.77;;;2.73;;
17451;SDS011;8843;48.838;9.324;2023-02-01T12:03:40;9.17;;;2.13;;
17451;SDS011;8843;48.838;9.324;2023-02-01T12:06:42;4.77;;;2.07;;
17451;SDS011;8843;48.838;9.324;2023-02-01T12:09:30;7.97;;;2.17;;
17451;SDS011;8843;48.838;9.324;2023-02-01T12:12:08;5.77;;;2.07;;
17451;SDS011;8843;48.838;9.324;2023-02-01T12:14:45;6.67;;;2.00;;
17451;SDS011;8843;48.838;9.324;2023-02-01T12:20:35;3.80;;;1.43;;
17451;SDS011;8843;48.838;9.324;2023-02-01T12:23:29;8.00;;;2.00;;
17451;SDS011;8843;48.838;9.324;2023-02-01T12:26:17;5.13;;;1.80;;
17451;SDS011;8843;48.838;9.324;2023-02-01T12:29:10;6.33;;;2.30;;
17451;SDS011;8843;48.838;9.324;2023-02-01T12:31:54;5.37;;;2.00;;
17451;SDS011;8843;48.838;9.324;2023-02-01T12:34:41;4.83;;;2.07;;
17451;SDS011;8843;48.838;9.324;2023-02-01T12:37:24;5.17;;;2.17;;
17451;SDS011;8843;48.838;9.324;2023-02-01T12:40:05;5.27;;;2.27;;
17451;SDS011;8843;48.838;9.324;2023-02-01T12:42:45;5.30;;;2.43;;
17451;SDS011;8843;48.838;9.324;2023-02-01T12:45:20;4.17;;;1.80;;
17451;SDS011;8843;48.838;9.324;2023-02-01T12:47:54;7.60;;;2.10;;
17451;SDS011;8843;48.838;9.324;2023-02-01T12:50:27;6.33;;;1.70;;
17451;SDS011;8843;48.838;9.324;2023-02-01T12:52:58;10.07;;;2.33;;
17451;SDS011;8843;48.838;9.324;2023-02-01T12:55:36;6.13;;;2.07;;
17451;SDS011;8843;48.838;9.324;2023-02-01T12:58:10;6.33;;;1.70;;
17451;SDS011;8843;48.838;9.324;2023-02-01T13:00:44;6.07;;;1.97;;
17451;SDS011;8843;48.838;9.324;2023-02-01T13:03:19;5.80;;;2.10;;
17451;SDS011;8843;48.838;9.324;2023-02-01T13:05:56;5.17;;;2.50;;
17451;SDS011;8843;48.838;9.324;2023-02-01T13:08:29;7.23;;;2.37;;
17451;SDS011;8843;48.838;9.324;2023-02-01T13:11:04;6.93;;;2.07;;
17451;SDS011;8843;48.838;9.324;2023-02-01T13:13:41;2.77;;;1.70;;
17451;SDS011;8843;48.838;9.324;2023-02-01T13:16:15;6.17;;;2.03;;
17451;SDS011;8843;48.838;9.324;2023-02-01T13:18:48;8.10;;;2.57;;
17451;SDS011;8843;48.838;9.324;2023-02-01T13:21:18;9.50;;;2.73;;
17451;SDS011;8843;48.838;9.324;2023-02-01T13:23:50;7.33;;;2.20;;
17451;SDS011;8843;48.838;9.324;2023-02-01T13:26:19;6.53;;;2.30;;
17451;SDS011;8843;48.838;9.324;2023-02-01T13:28:46;6.97;;;2.50;;
17451;SDS011;8843;48.838;9.324;2023-02-01T13:34:33;7.77;;;2.60;;
17451;SDS011;8843;48.838;9.324;2023-02-01T13:37:23;6.83;;;2.23;;
17451;SDS011;8843;48.838;9.324;2023-02-01T13:42:49;6.10;;;2.53;;
17451;SDS011;8843;48.838;9.324;2023-02-01T13:45:19;11.57;;;2.83;;
17451;SDS011;8843;48.838;9.324;2023-02-01T13:47:50;10.20;;;2.47;;
17451;SDS011;8843;48.838;9.324;2023-02-01T13:50:21;4.80;;;1.67;;
17451;SDS011;8843;48.838;9.324;2023-02-01T13:52:51;6.77;;;2.07;;
17451;SDS011;8843;48.838;9.324;2023-02-01T13:58:17;3.90;;;2.13;;
17451;SDS011;8843;48.838;9.324;2023-02-01T14:00:46;8.07;;;2.17;;
17451;SDS011;8843;48.838;9.324;2023-02-01T14:03:14;5.33;;;1.90;;
17451;SDS011;8843;48.838;9.324;2023-02-01T14:09:12;7.23;;;2.13;;
17451;SDS011;8843;48.838;9.324;2023-02-01T14:11:45;4.00;;;2.03;;
17451;SDS011;8843;48.838;9.324;2023-02-01T14:23:14;5.33;;;2.37;;
17451;SDS011;8843;48.838;9.324;2023-02-01T14:25:43;7.87;;;2.30;;
17451;SDS011;8843;48.838;9.324;2023-02-01T14:28:12;4.40;;;2.13;;
17451;SDS011;8843;48.838;9.324;2023-02-01T14:30:49;9.97;;;2.47;;
17451;SDS011;8843;48.838;9.324;2023-02-01T14:33:20;12.37;;;2.10;;
17451;SDS011;8843;48.838;9.324;2023-02-01T14:36:02;5.07;;;2.40;;
17451;SDS011;8843;48.838;9.324;2023-02-01T14:38:32;6.67;;;2.47;;
17451;SDS011;8843;48.838;9.324;2023-02-01T14:41:24;8.87;;;2.30;;
17451;SDS011;8843;48.838;9.324;2023-02-01T14:47:04;5.70;;;2.60;;
17451;SDS011;8843;48.838;9.324;2023-02-01T14:49:34;11.40;;;2.00;;
17451;SDS011;8843;48.838;9.324;2023-02-01T14:52:05;8.83;;;2.70;;
17451;SDS011;8843;48.838;9.324;2023-02-01T14:54:36;9.63;;;2.60;;
17451;SDS011;8843;48.838;9.324;2023-02-01T14:57:08;6.13;;;1.80;;
17451;SDS011;8843;48.838;9.324;2023-02-01T14:59:40;16.47;;;2.73;;
17451;SDS011;8843;48.838;9.324;2023-02-01T15:02:15;9.93;;;2.07;;
17451;SDS011;8843;48.838;9.324;2023-02-01T15:04:46;6.90;;;2.37;;
17451;SDS011;8843;48.838;9.324;2023-02-01T15:07:19;4.17;;;1.60;;
17451;SDS011;8843;48.838;9.324;2023-02-01T15:09:49;7.40;;;2.33;;
17451;SDS011;8843;48.838;9.324;2023-02-01T15:12:18;5.57;;;2.10;;
17451;SDS011;8843;48.838;9.324;2023-02-01T15:15:03;7.90;;;1.67;;
17451;SDS011;8843;48.838;9.324;2023-02-01T15:17:39;6.37;;;2.37;;
17451;SDS011;8843;48.838;9.324;2023-02-01T15:20:12;6.00;;;2.00;;
17451;SDS011;8843;48.838;9.324;2023-02-01T15:22:41;8.93;;;2.57;;
17451;SDS011;8843;48.838;9.324;2023-02-01T15:25:18;8.73;;;2.53;;
17451;SDS011;8843;48.838;9.324;2023-02-01T15:27:46;11.90;;;2.70;;
17451;SDS011;8843;48.838;9.324;2023-02-01T15:30:16;6.03;;;2.00;;
17451;SDS011;8843;48.838;9.324;2023-02-01T15:32:47;5.13;;;2.40;;
17451;SDS011;8843;48.838;9.324;2023-02-01T15:41:09;7.43;;;2.27;;
17451;SDS011;8843;48.838;9.324;2023-02-01T15:43:40;4.60;;;2.10;;
17451;SDS011;8843;48.838;9.324;2023-02-01T15:46:11;7.87;;;2.70;;
17451;SDS011;8843;48.838;9.324;2023-02-01T15:48:44;8.10;;;2.80;;
17451;SDS011;8843;48.838;9.324;2023-02-01T15:51:14;5.83;;;2.23;;
17451;SDS011;8843;48.838;9.324;2023-02-01T15:53:44;6.87;;;2.43;;
17451;SDS011;8843;48.838;9.324;2023-02-01T15:56:14;4.93;;;2.37;;
17451;SDS011;8843;48.838;9.324;2023-02-01T15:58:48;9.93;;;2.90;;
17451;SDS011;8843;48.838;9.324;2023-02-01T16:01:19;5.30;;;1.90;;
17451;SDS011;8843;48.838;9.324;2023-02-01T16:03:47;4.17;;;1.87;;
17451;SDS011;8843;48.838;9.324;2023-02-01T16:06:26;4.13;;;1.83;;